aviador You're here:

KIPJ Decoded Metar

LINCOLNTON in NC, USA
Report Time2017-06-25 07:10:00
UTC Time2017-06-25 06:57:21
Flight Rules vfr VFR
WindCalm
Visibility9999 m
Phenomena:N/A
Clouds:Scattered 050 Hf
CeilingNone
Temp20°C (ISA +7)
Dew Point20°C (100% RH)
QNH1018 hPa
Density Alt1,808 ft
Elevation876 ft
Report Wrong Elevation
Raw Report
KIPJ 250710Z AUTO 00000KT 10SM SCT050 20/20 A3005 RMK AO2
T02000195=

Extra information for KIPJ:More info

Metar Taf Metar & Taf Last 4 Metars F.Rules Stats Wind Profile Meteogram Temp Stats Airport Information Weather charts Add Link Nearby VenuesMetar ALERT Operation Metar Decoded Social comments

AIRNAV info for KIPJ